Карточка аэропорта UATT

Внимание!
Информация на этой странице в стадии наполнения.
Если вы не увидели какой-то информации, или заметили неточность - пожалуйста сообщите нам!
Спасибо!
Команда RU-STAFF
Название аэропортаАктобе
Название аэропорта (англ.)Aktobe
Превышение738 ft. (224.9 m.)
Координаты50°14.748', 57°12.402'
Высота перехода10000ft
Эшелон переходаFL120, QNH<733:FL130
Коды ответчика3440-3447, 3540-3547
Зона ОрВДАктобе РПИ (UATT)
Данные METARUATT 041100Z 28004MPS CAVOK M07/M10 Q1028 NOSIG RMK QFE750/1001
Проноз погоды (TAF)UATT 040500Z 0406/0506 30003MPS 3100 -SN BR OVC005 TXM02/0412Z TNM16/0503Z TEMPO 0406/0408 1000 OVC003 BECMG 0408/0410 9999 NSW BKN011 BECMG 0415/0416 3100 BR TEMPO 0418/0504 0500 FZFG VV002
NOTAMshow/hide NOTAM
AWOS   TABLE

Информация о ВПП

ВПП Длина ВПП (м.) Покрытие Курс ВПП Частота ILS
133202Бетон135111.7
313202Бетон315111.7

Диспетчерские позиции




Спутниковое изображение